createdAt,value
2023-02-25T00:00:48.000Z,4.4
2023-02-25T00:04:20.000Z,2.7
2023-02-25T00:07:53.000Z,3
2023-02-25T00:11:26.000Z,2.5
2023-02-25T00:15:16.000Z,3.4
2023-02-25T00:18:49.000Z,3
2023-02-25T00:22:21.000Z,2.4
2023-02-25T00:25:58.000Z,2.4
2023-02-25T00:29:31.000Z,2.8
2023-02-25T00:32:22.000Z,2.2
2023-02-25T00:35:55.000Z,2.6
2023-02-25T00:39:27.000Z,2.5
2023-02-25T00:43:00.000Z,2.8
2023-02-25T00:46:33.000Z,2.2
2023-02-25T00:50:05.000Z,2.1
2023-02-25T00:53:38.000Z,2.9
2023-02-25T00:57:11.000Z,2.6
2023-02-25T01:00:43.000Z,2.1
2023-02-25T01:04:17.000Z,2.4
2023-02-25T01:07:50.000Z,2.7
2023-02-25T01:10:41.000Z,2.2
2023-02-25T01:14:14.000Z,2.3
2023-02-25T01:17:46.000Z,2.8
2023-02-25T01:21:19.000Z,2.7
2023-02-25T01:24:51.000Z,2.7
2023-02-25T01:28:24.000Z,3.6
2023-02-25T01:31:56.000Z,2.7
2023-02-25T01:35:30.000Z,3.3
2023-02-25T01:39:02.000Z,3
2023-02-25T01:42:35.000Z,2.3
2023-02-25T01:46:08.000Z,3.1
2023-02-25T01:48:59.000Z,3.4
2023-02-25T01:52:31.000Z,3
2023-02-25T01:56:04.000Z,2.9
2023-02-25T01:59:37.000Z,2.9
2023-02-25T02:03:09.000Z,3.4
2023-02-25T02:06:42.000Z,4.1
2023-02-25T02:10:15.000Z,3.7
2023-02-25T02:13:47.000Z,3.3
2023-02-25T02:17:20.000Z,3.6
2023-02-25T02:20:55.000Z,3.7
2023-02-25T02:24:28.000Z,3.7
2023-02-25T02:27:19.000Z,3.4
2023-02-25T02:30:51.000Z,3.1
2023-02-25T02:34:24.000Z,3.7
2023-02-25T02:37:57.000Z,4.1
2023-02-25T02:41:30.000Z,3.5
2023-02-25T02:45:02.000Z,3.9
2023-02-25T02:48:35.000Z,3
2023-02-25T02:52:08.000Z,3.6
2023-02-25T02:55:40.000Z,3.8
2023-02-25T02:59:13.000Z,3.8
2023-02-25T03:02:46.000Z,3.4
2023-02-25T03:05:37.000Z,3.9
2023-02-25T03:09:10.000Z,3.2
2023-02-25T03:12:42.000Z,3.3
2023-02-25T03:16:15.000Z,3.2
2023-02-25T03:19:48.000Z,3.5
2023-02-25T03:23:21.000Z,3.6
2023-02-25T03:26:53.000Z,3.3
2023-02-25T03:30:26.000Z,3.7
2023-02-25T03:33:59.000Z,3.2
2023-02-25T03:37:32.000Z,3.1
2023-02-25T03:41:04.000Z,3.2
2023-02-25T03:43:56.000Z,3.1
2023-02-25T03:47:28.000Z,3.2
2023-02-25T03:51:01.000Z,3.3
2023-02-25T03:54:34.000Z,3.4
2023-02-25T03:58:06.000Z,3.2
2023-02-25T04:01:39.000Z,3.6
2023-02-25T04:05:12.000Z,3.5
2023-02-25T04:08:44.000Z,3.1
2023-02-25T04:12:17.000Z,3
2023-02-25T04:15:50.000Z,3.6
2023-02-25T04:19:22.000Z,3.7
2023-02-25T04:22:13.000Z,3.2
2023-02-25T04:25:46.000Z,3.9
2023-02-25T04:29:19.000Z,3.9
2023-02-25T04:32:51.000Z,3.7
2023-02-25T04:36:24.000Z,3.2
2023-02-25T04:39:57.000Z,3.1
2023-02-25T04:43:29.000Z,3.5
2023-02-25T04:47:02.000Z,3.7
2023-02-25T04:50:35.000Z,3.6
2023-02-25T04:54:07.000Z,3.8
2023-02-25T04:57:40.000Z,2.9
2023-02-25T05:00:31.000Z,3.5
2023-02-25T05:04:04.000Z,2.9
2023-02-25T05:07:37.000Z,3.2
2023-02-25T05:11:09.000Z,2.8
2023-02-25T05:14:42.000Z,3.7
2023-02-25T05:18:14.000Z,3.5
2023-02-25T05:21:47.000Z,3.6
2023-02-25T05:25:20.000Z,3.9
2023-02-25T05:28:53.000Z,4
2023-02-25T05:32:25.000Z,3.6
2023-02-25T05:35:58.000Z,3.9
2023-02-25T05:38:49.000Z,4.1
2023-02-25T05:42:22.000Z,4.1
2023-02-25T05:45:55.000Z,3.9
2023-02-25T05:49:27.000Z,4.3
2023-02-25T05:53:00.000Z,3.9
2023-02-25T05:56:32.000Z,4.5
2023-02-25T06:00:05.000Z,4.4
2023-02-25T06:03:38.000Z,4.7
2023-02-25T06:07:10.000Z,5.1
2023-02-25T06:10:43.000Z,4.5
2023-02-25T06:14:15.000Z,4.5
2023-02-25T06:17:06.000Z,4.3
2023-02-25T06:21:12.000Z,4
2023-02-25T06:25:07.000Z,4.3
2023-02-25T06:28:40.000Z,4.6
2023-02-25T06:32:12.000Z,4.1
2023-02-25T06:35:45.000Z,4.5
2023-02-25T06:39:18.000Z,4.4
2023-02-25T06:42:50.000Z,4.5
2023-02-25T06:46:23.000Z,4.7
2023-02-25T06:49:56.000Z,5.2
2023-02-25T06:53:28.000Z,4.9
2023-02-25T06:56:20.000Z,5.1
2023-02-25T06:59:52.000Z,5.5
2023-02-25T07:03:25.000Z,5.5
2023-02-25T07:06:58.000Z,5.5
2023-02-25T07:10:31.000Z,5.5
2023-02-25T07:14:03.000Z,5.5
2023-02-25T07:17:36.000Z,5.5
2023-02-25T07:21:08.000Z,7.4
2023-02-25T07:24:41.000Z,5.1
2023-02-25T07:28:14.000Z,5.4
2023-02-25T07:31:46.000Z,5.6
2023-02-25T07:34:37.000Z,5.6
2023-02-25T07:38:10.000Z,5.1
2023-02-25T07:41:46.000Z,5.8
2023-02-25T07:45:18.000Z,5.2
2023-02-25T07:48:51.000Z,5.9
2023-02-25T07:52:23.000Z,6.1
2023-02-25T07:55:56.000Z,6
2023-02-25T07:59:29.000Z,5.6
2023-02-25T08:03:01.000Z,5.9
2023-02-25T08:06:34.000Z,5.4
2023-02-25T08:10:07.000Z,5.6
2023-02-25T08:12:59.000Z,6
2023-02-25T08:16:31.000Z,5.1
2023-02-25T08:20:04.000Z,5.8
2023-02-25T08:23:37.000Z,5.7
2023-02-25T08:27:09.000Z,5.3
2023-02-25T08:30:42.000Z,6.3
2023-02-25T08:34:15.000Z,5.7
2023-02-25T08:37:48.000Z,5.4
2023-02-25T08:41:21.000Z,5.9
2023-02-25T08:44:54.000Z,6.2
2023-02-25T08:48:27.000Z,5.3
2023-02-25T08:51:18.000Z,5.8
2023-02-25T08:54:51.000Z,4.8
2023-02-25T08:58:23.000Z,4.6
2023-02-25T09:01:56.000Z,4.7
2023-02-25T09:05:29.000Z,4.6
2023-02-25T09:09:01.000Z,3.8
2023-02-25T09:12:48.000Z,3.6
2023-02-25T09:16:21.000Z,4.6
2023-02-25T09:19:53.000Z,3.7
2023-02-25T09:23:26.000Z,3.3
2023-02-25T09:26:59.000Z,2.5
2023-02-25T09:29:50.000Z,5
2023-02-25T09:33:23.000Z,4.3
2023-02-25T09:36:58.000Z,3.4
2023-02-25T09:40:31.000Z,3.8
2023-02-25T09:44:03.000Z,4
2023-02-25T09:47:36.000Z,3.1
2023-02-25T09:51:09.000Z,2.6
2023-02-25T09:54:41.000Z,3.1
2023-02-25T09:58:14.000Z,2.3
2023-02-25T10:01:47.000Z,2.2
2023-02-25T10:05:20.000Z,2.1
2023-02-25T10:08:11.000Z,2.9
2023-02-25T10:11:43.000Z,2.3
2023-02-25T10:15:16.000Z,2
2023-02-25T10:18:49.000Z,1.6
2023-02-25T10:22:22.000Z,1.8
2023-02-25T10:25:54.000Z,2.1
2023-02-25T10:29:29.000Z,2.1
2023-02-25T10:33:02.000Z,1.6
2023-02-25T10:36:35.000Z,1.3
2023-02-25T10:40:08.000Z,1.8
2023-02-25T10:43:40.000Z,1.6
2023-02-25T10:46:32.000Z,1.8
2023-02-25T10:50:04.000Z,1.4
2023-02-25T10:53:37.000Z,1.3
2023-02-25T10:57:10.000Z,1.3
2023-02-25T11:00:42.000Z,1.1
2023-02-25T11:04:15.000Z,0.8
2023-02-25T11:07:48.000Z,0.8
2023-02-25T11:11:20.000Z,0.8
2023-02-25T11:14:57.000Z,0.8
2023-02-25T11:18:30.000Z,0.8
2023-02-25T11:22:02.000Z,0.8
2023-02-25T11:24:53.000Z,0.7
2023-02-25T11:28:26.000Z,0.8
2023-02-25T11:31:58.000Z,1
2023-02-25T11:35:31.000Z,0.8
2023-02-25T11:39:06.000Z,0.8
2023-02-25T11:42:39.000Z,1.2
2023-02-25T11:46:11.000Z,0.7
2023-02-25T11:49:44.000Z,0.9
2023-02-25T11:53:17.000Z,0.9
2023-02-25T11:56:49.000Z,1.1
2023-02-25T12:00:22.000Z,1.1
2023-02-25T12:03:13.000Z,0.7
2023-02-25T12:06:46.000Z,1.2
2023-02-25T12:10:18.000Z,1.1
2023-02-25T12:13:51.000Z,0.8
2023-02-25T12:17:24.000Z,1
2023-02-25T12:21:00.000Z,1.1
2023-02-25T12:24:32.000Z,1
2023-02-25T12:28:05.000Z,1.5
2023-02-25T12:31:38.000Z,1
2023-02-25T12:35:11.000Z,0.9
2023-02-25T12:38:43.000Z,1
2023-02-25T12:41:34.000Z,1.1
2023-02-25T12:45:07.000Z,0.8
2023-02-25T12:48:40.000Z,1.2
2023-02-25T12:52:12.000Z,1.2
2023-02-25T12:55:45.000Z,1
2023-02-25T12:59:17.000Z,1
2023-02-25T13:02:50.000Z,1.2
2023-02-25T13:06:23.000Z,1.9
2023-02-25T13:09:55.000Z,1.5
2023-02-25T13:13:29.000Z,1.4
2023-02-25T13:17:02.000Z,1.6
2023-02-25T13:19:53.000Z,1.6
2023-02-25T13:23:26.000Z,1.5
2023-02-25T13:26:58.000Z,1.6
2023-02-25T13:30:31.000Z,1.2
2023-02-25T13:34:04.000Z,1.3
2023-02-25T13:37:37.000Z,1.7
2023-02-25T13:41:09.000Z,1.5
2023-02-25T13:44:42.000Z,1.2
2023-02-25T13:48:14.000Z,1.4
2023-02-25T13:51:47.000Z,1.6
2023-02-25T13:55:20.000Z,1.8
2023-02-25T13:58:11.000Z,1.5
2023-02-25T14:01:43.000Z,1.6
2023-02-25T14:05:16.000Z,1.4
2023-02-25T14:08:49.000Z,1.5
2023-02-25T14:12:22.000Z,1.5
2023-02-25T14:15:54.000Z,0.9
2023-02-25T14:19:27.000Z,1.4
2023-02-25T14:23:00.000Z,0.9
2023-02-25T14:26:32.000Z,1.6
2023-02-25T14:30:05.000Z,1.3
2023-02-25T14:33:38.000Z,1.1
2023-02-25T14:36:29.000Z,1.1
2023-02-25T14:40:01.000Z,1
2023-02-25T14:43:34.000Z,1.6
2023-02-25T14:47:06.000Z,1.5
2023-02-25T14:50:39.000Z,1.5
2023-02-25T14:54:12.000Z,1.3
2023-02-25T14:57:44.000Z,1.1
2023-02-25T15:01:17.000Z,1
2023-02-25T15:04:50.000Z,1.5
2023-02-25T15:08:24.000Z,1.3
2023-02-25T15:11:56.000Z,1.5
2023-02-25T15:14:48.000Z,1.3
2023-02-25T15:18:20.000Z,0.9
2023-02-25T15:21:53.000Z,1.1
2023-02-25T15:25:27.000Z,1
2023-02-25T15:29:00.000Z,0.8
2023-02-25T15:32:32.000Z,0.9
2023-02-25T15:36:05.000Z,0.8
2023-02-25T15:39:37.000Z,1.2
2023-02-25T15:43:10.000Z,1
2023-02-25T15:46:43.000Z,1.3
2023-02-25T15:50:16.000Z,1.2
2023-02-25T15:53:07.000Z,1.1
2023-02-25T15:56:40.000Z,1.2
2023-02-25T16:00:12.000Z,1.3
2023-02-25T16:03:45.000Z,1.2
2023-02-25T16:07:18.000Z,1.1
2023-02-25T16:10:50.000Z,1
2023-02-25T16:14:23.000Z,0.9
2023-02-25T16:17:56.000Z,1.1
2023-02-25T16:21:28.000Z,1.4
2023-02-25T16:25:01.000Z,1.2
2023-02-25T16:28:33.000Z,0.9
2023-02-25T16:31:24.000Z,1.2
2023-02-25T16:34:57.000Z,1.3
2023-02-25T16:38:30.000Z,1.1
2023-02-25T16:42:03.000Z,1.1
2023-02-25T16:45:36.000Z,1
2023-02-25T16:49:08.000Z,1.2
2023-02-25T16:52:41.000Z,0.8
2023-02-25T16:56:14.000Z,0.9
2023-02-25T16:59:46.000Z,0.8
2023-02-25T17:03:19.000Z,1.1
2023-02-25T17:06:52.000Z,1.1
2023-02-25T17:09:43.000Z,1
2023-02-25T17:13:16.000Z,1.2
2023-02-25T17:16:49.000Z,1.3
2023-02-25T17:20:21.000Z,1.3
2023-02-25T17:23:54.000Z,1.3
2023-02-25T17:27:27.000Z,0.9
2023-02-25T17:30:59.000Z,1.4
2023-02-25T17:34:32.000Z,1.4
2023-02-25T17:38:05.000Z,1.4
2023-02-25T17:41:38.000Z,1.2
2023-02-25T17:45:10.000Z,1.1
2023-02-25T17:48:04.000Z,1.2
2023-02-25T17:51:37.000Z,1.2
2023-02-25T17:55:09.000Z,1.1
2023-02-25T17:58:42.000Z,1
2023-02-25T18:02:15.000Z,0.9
2023-02-25T18:05:47.000Z,0.9
2023-02-25T18:09:20.000Z,1.1
2023-02-25T18:12:53.000Z,1
2023-02-25T18:16:25.000Z,1.2
2023-02-25T18:19:57.000Z,0.9
2023-02-25T18:23:26.000Z,0.9
2023-02-25T18:26:18.000Z,1
2023-02-25T18:32:58.000Z,1.6
2023-02-25T18:36:27.000Z,1.1
2023-02-25T18:39:56.000Z,1.2
2023-02-25T18:43:24.000Z,1.1
2023-02-25T18:46:52.000Z,1.7
2023-02-25T18:50:20.000Z,1.7
2023-02-25T18:53:48.000Z,1.6
2023-02-25T18:57:16.000Z,1.2
2023-02-25T19:00:44.000Z,1.4
2023-02-25T19:04:12.000Z,1.7
2023-02-25T19:07:40.000Z,1.5
2023-02-25T19:10:28.000Z,1.7
2023-02-25T19:13:56.000Z,1.5
2023-02-25T19:17:24.000Z,1.6
2023-02-25T19:20:52.000Z,1.8
2023-02-25T19:24:20.000Z,1.6
2023-02-25T19:27:48.000Z,1.5
2023-02-25T19:31:16.000Z,1.6
2023-02-25T19:34:44.000Z,1.5
2023-02-25T19:38:12.000Z,1.5
2023-02-25T19:41:40.000Z,1.5
2023-02-25T19:45:08.000Z,2.2
2023-02-25T19:47:57.000Z,1.6
2023-02-25T19:51:25.000Z,1.4
2023-02-25T19:54:53.000Z,1.6
2023-02-25T19:58:21.000Z,1.9
2023-02-25T20:01:49.000Z,1.9
2023-02-25T20:05:17.000Z,2.7
2023-02-25T20:08:45.000Z,1.6
2023-02-25T20:12:13.000Z,1.8
2023-02-25T20:15:41.000Z,2.2
2023-02-25T20:19:09.000Z,1.4
2023-02-25T20:22:37.000Z,1.9
2023-02-25T20:25:26.000Z,2.4
2023-02-25T20:28:54.000Z,2
2023-02-25T20:32:22.000Z,1.8
2023-02-25T20:35:50.000Z,1.5
2023-02-25T20:39:17.000Z,2
2023-02-25T20:42:46.000Z,2.3
2023-02-25T20:46:13.000Z,1.9
2023-02-25T20:49:42.000Z,2.6
2023-02-25T20:53:10.000Z,2.4
2023-02-25T20:56:38.000Z,2.2
2023-02-25T21:00:06.000Z,2.4
2023-02-25T21:02:58.000Z,1.9
2023-02-25T21:06:26.000Z,2.2
2023-02-25T21:09:54.000Z,2.5
2023-02-25T21:13:21.000Z,2
2023-02-25T21:16:49.000Z,2.4
2023-02-25T21:20:17.000Z,2.6
2023-02-25T21:23:45.000Z,2.6
2023-02-25T21:27:13.000Z,3.1
2023-02-25T21:30:41.000Z,2.8
2023-02-25T21:34:10.000Z,2.9
2023-02-25T21:37:38.000Z,2.3
2023-02-25T21:40:27.000Z,2.2
2023-02-25T21:43:55.000Z,2.3
2023-02-25T21:47:23.000Z,2.6
2023-02-25T21:50:50.000Z,2.5
2023-02-25T21:54:18.000Z,2.7
2023-02-25T21:57:46.000Z,2.5
2023-02-25T22:01:14.000Z,3.7
2023-02-25T22:04:42.000Z,4.8
2023-02-25T22:08:10.000Z,3.7
2023-02-25T22:11:38.000Z,3.2
2023-02-25T22:15:06.000Z,3.6
2023-02-25T22:17:55.000Z,2.7
2023-02-25T22:21:23.000Z,2.8
2023-02-25T22:24:51.000Z,2.7
2023-02-25T22:28:20.000Z,2.4
2023-02-25T22:31:48.000Z,3
2023-02-25T22:35:16.000Z,3.2
2023-02-25T22:38:44.000Z,3.2
2023-02-25T22:42:12.000Z,3.2
2023-02-25T22:45:40.000Z,3.4
2023-02-25T22:49:08.000Z,2.8
2023-02-25T22:52:36.000Z,3
2023-02-25T22:55:26.000Z,2.8
2023-02-25T22:58:54.000Z,2.8
2023-02-25T23:02:22.000Z,2.7
2023-02-25T23:05:50.000Z,2.1
2023-02-25T23:09:18.000Z,2.9
2023-02-25T23:12:46.000Z,2.4
2023-02-25T23:16:14.000Z,2.4
2023-02-25T23:19:42.000Z,2.5
2023-02-25T23:23:10.000Z,3.1
2023-02-25T23:26:38.000Z,2.6
2023-02-25T23:30:06.000Z,3
2023-02-25T23:32:55.000Z,2.8
2023-02-25T23:36:23.000Z,3.1
2023-02-25T23:39:51.000Z,2.8
2023-02-25T23:43:19.000Z,2.7
2023-02-25T23:46:47.000Z,2.6
2023-02-25T23:50:15.000Z,2.7
2023-02-25T23:53:43.000Z,2.4
2023-02-25T23:57:11.000Z,2.7
